Aberdeen, Mississippi
Current Conditions -  °F | °C
As of 10:35 AM on Sunday 23 Nov 2014 (Local Time) from KM40 Reporting Station
Light Rain Light Rain  
Wind Chill: 63°   Ceiling: 600
Heat Index: 63°   Visibility: 2mi
Dew Point: 52°   Wind: 9mph
Humidity: 68%   Direction: 140°SE
Pressure: 29.67"   Gusts: NA
Location:  33.82°N, 88.54°W
Report Text: KM40 231635Z AUTO 14008KT 2SM -RA OVC006 17/11 A2967 RMK AO2 P0001
Loading
Personal Weather Stations






























Interactive Weather Map New forecast layout! Learn more

10-Day Weather Forecast

Advertisements
Track Severe Weather on mobile